createdAt,value
2018-02-17T00:00:59.250Z,4.80
2018-02-17T00:03:26.639Z,5.90
2018-02-17T00:05:54.035Z,5.10
2018-02-17T00:08:21.419Z,5.03
2018-02-17T00:10:48.819Z,6.63
2018-02-17T00:13:16.208Z,6.90
2018-02-17T00:15:43.647Z,7.07
2018-02-17T00:18:11.100Z,6.13
2018-02-17T00:20:38.498Z,6.97
2018-02-17T00:23:05.923Z,6.40
2018-02-17T00:25:33.315Z,6.43
2018-02-17T00:28:00.706Z,6.10
2018-02-17T00:30:28.103Z,6.37
2018-02-17T00:32:55.498Z,6.07
2018-02-17T00:35:22.890Z,6.70
2018-02-17T00:37:50.322Z,6.40
2018-02-17T00:40:17.714Z,10.37
2018-02-17T00:42:45.115Z,10.37
2018-02-17T00:45:12.514Z,10.70
2018-02-17T00:47:39.988Z,9.33
2018-02-17T00:50:07.379Z,8.73
2018-02-17T00:52:34.767Z,9.30
2018-02-17T00:55:02.179Z,9.13
2018-02-17T00:57:30.423Z,8.83
2018-02-17T00:59:57.887Z,9.13
2018-02-17T01:02:25.346Z,14.03
2018-02-17T01:04:52.742Z,13.50
2018-02-17T01:07:20.145Z,13.07
2018-02-17T01:09:47.569Z,12.40
2018-02-17T01:12:15.065Z,11.80
2018-02-17T01:14:42.454Z,11.37
2018-02-17T01:17:09.855Z,11.13
2018-02-17T01:19:37.270Z,10.83
2018-02-17T01:22:04.691Z,9.47
2018-02-17T01:24:32.142Z,7.60
2018-02-17T01:26:59.544Z,9.00
2018-02-17T01:29:26.962Z,7.30
2018-02-17T01:31:54.359Z,8.00
2018-02-17T01:34:21.752Z,9.07
2018-02-17T01:36:49.142Z,8.87
2018-02-17T01:39:16.582Z,7.63
2018-02-17T01:41:44.072Z,7.17
2018-02-17T01:44:11.448Z,8.57
2018-02-17T01:46:38.950Z,7.60
2018-02-17T01:49:06.355Z,8.07
2018-02-17T01:51:33.767Z,6.73
2018-02-17T01:54:01.168Z,7.77
2018-02-17T01:56:28.575Z,10.43
2018-02-17T01:58:55.963Z,7.63
2018-02-17T02:01:23.362Z,8.13
2018-02-17T02:03:50.745Z,8.17
2018-02-17T02:06:18.135Z,6.10
2018-02-17T02:08:45.527Z,7.17
2018-02-17T02:11:12.919Z,7.10
2018-02-17T02:13:40.317Z,8.00
2018-02-17T02:16:07.812Z,6.60
2018-02-17T02:18:35.206Z,7.00
2018-02-17T02:21:02.734Z,7.97
2018-02-17T02:23:30.122Z,6.90
2018-02-17T02:25:57.518Z,7.47
2018-02-17T02:28:24.999Z,6.50
2018-02-17T02:30:52.395Z,6.57
2018-02-17T02:33:19.784Z,6.90
2018-02-17T02:35:47.260Z,7.57
2018-02-17T02:38:14.642Z,6.37
2018-02-17T02:40:42.067Z,6.47
2018-02-17T02:43:09.462Z,7.33
2018-02-17T02:45:36.851Z,6.37
2018-02-17T02:48:04.243Z,6.67
2018-02-17T02:50:31.644Z,7.57
2018-02-17T02:52:59.046Z,7.57
2018-02-17T02:55:26.419Z,7.60
2018-02-17T02:57:53.850Z,8.13
2018-02-17T03:00:21.310Z,7.97
2018-02-17T03:02:48.737Z,8.37
2018-02-17T03:05:16.115Z,7.50
2018-02-17T03:07:43.503Z,6.70
2018-02-17T03:10:10.932Z,6.93
2018-02-17T03:12:38.328Z,7.93
2018-02-17T03:15:05.711Z,6.53
2018-02-17T03:17:33.142Z,6.70
2018-02-17T03:20:00.496Z,6.73
2018-02-17T03:22:27.890Z,6.47
2018-02-17T03:24:55.278Z,6.07
2018-02-17T03:27:22.676Z,5.97
2018-02-17T03:29:50.062Z,5.77
2018-02-17T03:32:17.528Z,6.67
2018-02-17T03:34:44.982Z,6.00
2018-02-17T03:37:12.383Z,5.37
2018-02-17T03:39:39.774Z,6.73
2018-02-17T03:42:07.174Z,6.33
2018-02-17T03:44:34.570Z,5.70
2018-02-17T03:47:01.971Z,7.00
2018-02-17T03:49:29.355Z,6.10
2018-02-17T03:51:56.746Z,6.23
2018-02-17T03:54:24.154Z,6.63
2018-02-17T03:56:51.546Z,5.90
2018-02-17T03:59:19.346Z,6.87
2018-02-17T04:01:46.747Z,6.13
2018-02-17T04:04:14.131Z,7.47
2018-02-17T04:06:41.595Z,6.93
2018-02-17T04:09:09.062Z,6.57
2018-02-17T04:11:36.458Z,6.70
2018-02-17T04:14:03.859Z,6.87
2018-02-17T04:16:31.259Z,7.70
2018-02-17T04:18:58.665Z,7.00
2018-02-17T04:21:26.053Z,6.63
2018-02-17T04:23:53.447Z,7.77
2018-02-17T04:26:20.845Z,8.00
2018-02-17T04:28:48.223Z,7.03
2018-02-17T04:31:15.638Z,6.60
2018-02-17T04:33:43.030Z,7.57
2018-02-17T04:36:10.421Z,7.80
2018-02-17T04:38:37.815Z,8.53
2018-02-17T04:41:08.162Z,7.07
2018-02-17T04:43:40.071Z,7.70
2018-02-17T04:49:23.122Z,6.10
2018-02-17T04:51:54.867Z,7.70
2018-02-17T04:54:41.122Z,7.67
2018-02-17T05:00:11.239Z,7.57
2018-02-17T05:02:40.558Z,6.97
2018-02-17T05:08:14.006Z,7.10
2018-02-17T05:10:41.390Z,6.60
2018-02-17T05:13:08.795Z,6.97
2018-02-17T05:15:46.080Z,7.40
2018-02-17T05:18:13.466Z,7.20
2018-02-17T05:20:40.859Z,7.43
2018-02-17T05:26:23.703Z,6.70
2018-02-17T05:28:53.585Z,6.77
2018-02-17T05:31:30.866Z,6.80
2018-02-17T05:34:03.965Z,6.93
2018-02-17T05:36:32.118Z,7.03
2018-02-17T05:39:01.906Z,7.43
2018-02-17T05:41:39.191Z,7.50
2018-02-17T05:44:07.117Z,8.43
2018-02-17T05:46:40.010Z,8.50
2018-02-17T05:49:09.749Z,8.50
2018-02-17T05:51:37.103Z,8.07
2018-02-17T05:54:04.523Z,8.53
2018-02-17T05:56:31.924Z,8.10
2018-02-17T05:59:00.215Z,9.80
2018-02-17T06:01:27.603Z,9.40
2018-02-17T06:03:55.005Z,9.07
2018-02-17T06:06:22.487Z,8.90
2018-02-17T06:08:49.874Z,9.80
2018-02-17T06:11:17.269Z,10.03
2018-02-17T06:13:44.666Z,9.80
2018-02-17T06:16:12.048Z,9.70
2018-02-17T06:18:39.443Z,10.50
2018-02-17T06:21:06.831Z,9.53
2018-02-17T06:23:34.217Z,9.83
2018-02-17T06:26:01.602Z,9.90
2018-02-17T06:28:29.007Z,10.60
2018-02-17T06:30:56.402Z,10.23
2018-02-17T06:33:23.790Z,10.10
2018-02-17T06:35:51.191Z,7.93
2018-02-17T06:38:18.570Z,9.07
2018-02-17T06:40:45.967Z,10.53
2018-02-17T06:43:13.354Z,9.10
2018-02-17T06:45:40.746Z,8.40
2018-02-17T06:48:08.138Z,8.53
2018-02-17T06:50:35.531Z,8.60
2018-02-17T06:53:02.923Z,7.77
2018-02-17T06:55:30.320Z,8.23
2018-02-17T06:57:57.706Z,8.50
2018-02-17T07:00:25.103Z,8.20
2018-02-17T07:02:52.496Z,7.90
2018-02-17T07:05:19.889Z,8.57
2018-02-17T07:07:47.309Z,8.60
2018-02-17T07:10:14.706Z,8.40
2018-02-17T07:12:42.087Z,8.60
2018-02-17T07:15:09.588Z,8.47
2018-02-17T07:17:36.981Z,9.03
2018-02-17T07:20:04.379Z,8.10
2018-02-17T07:22:31.762Z,9.60
2018-02-17T07:24:59.158Z,8.43
2018-02-17T07:27:26.579Z,8.93
2018-02-17T07:29:53.954Z,8.80
2018-02-17T07:32:21.364Z,9.07
2018-02-17T07:34:48.754Z,7.90
2018-02-17T07:37:16.139Z,9.20
2018-02-17T07:39:43.623Z,8.30
2018-02-17T07:42:11.007Z,8.23
2018-02-17T07:44:38.402Z,8.73
2018-02-17T07:47:05.786Z,8.80
2018-02-17T07:49:33.244Z,8.50
2018-02-17T07:52:00.631Z,7.97
2018-02-17T07:54:28.019Z,7.57
2018-02-17T07:56:55.510Z,9.07
2018-02-17T07:59:22.963Z,8.67
2018-02-17T08:01:50.431Z,8.50
2018-02-17T08:04:17.879Z,8.73
2018-02-17T08:06:45.279Z,9.30
2018-02-17T08:09:12.674Z,9.00
2018-02-17T08:11:41.370Z,8.30
2018-02-17T08:14:08.762Z,8.37
2018-02-17T08:16:36.183Z,9.30
2018-02-17T08:19:03.639Z,9.00
2018-02-17T08:21:31.034Z,9.27
2018-02-17T08:23:58.451Z,8.33
2018-02-17T08:26:25.903Z,8.57
2018-02-17T08:28:53.358Z,7.93
2018-02-17T08:31:20.755Z,7.47
2018-02-17T08:33:48.144Z,8.10
2018-02-17T08:36:15.539Z,7.53
2018-02-17T08:38:42.927Z,7.73
2018-02-17T08:41:10.338Z,7.63
2018-02-17T08:43:37.735Z,7.57
2018-02-17T08:46:05.177Z,7.30
2018-02-17T08:48:32.573Z,8.57
2018-02-17T08:50:59.959Z,9.57
2018-02-17T08:53:27.414Z,10.23
2018-02-17T08:55:54.814Z,12.03
2018-02-17T08:58:22.199Z,12.13
2018-02-17T09:00:49.674Z,11.90
2018-02-17T09:03:17.068Z,11.50
2018-02-17T09:05:44.607Z,13.40
2018-02-17T09:08:11.987Z,12.70
2018-02-17T09:10:47.150Z,12.57
2018-02-17T09:13:14.537Z,14.47
2018-02-17T09:15:42.096Z,12.77
2018-02-17T09:18:09.483Z,13.60
2018-02-17T09:20:36.906Z,14.10
2018-02-17T09:23:04.303Z,14.43
2018-02-17T09:25:31.699Z,12.33
2018-02-17T09:27:59.242Z,12.77
2018-02-17T09:30:26.654Z,11.97
2018-02-17T09:32:54.052Z,11.13
2018-02-17T09:35:21.442Z,11.37
2018-02-17T09:37:48.831Z,10.50
2018-02-17T09:40:16.255Z,11.73
2018-02-17T09:42:43.707Z,11.37
2018-02-17T09:45:11.110Z,12.23
2018-02-17T09:47:38.513Z,10.60
2018-02-17T09:50:05.914Z,10.87
2018-02-17T09:52:33.307Z,11.27
2018-02-17T09:55:01.393Z,9.40
2018-02-17T09:57:28.786Z,11.50
2018-02-17T09:59:56.183Z,10.43
2018-02-17T10:02:23.575Z,9.77
2018-02-17T10:04:50.976Z,10.03
2018-02-17T10:07:18.909Z,9.97
2018-02-17T10:09:46.307Z,9.20
2018-02-17T10:12:13.709Z,8.97
2018-02-17T10:14:41.152Z,9.57
2018-02-17T10:17:08.542Z,10.27
2018-02-17T10:19:35.943Z,9.70
2018-02-17T10:22:03.416Z,9.70
2018-02-17T10:24:30.803Z,9.63
2018-02-17T10:26:58.201Z,10.07
2018-02-17T10:29:25.684Z,10.93
2018-02-17T10:31:53.093Z,8.87
2018-02-17T10:34:20.498Z,9.57
2018-02-17T10:36:47.891Z,8.57
2018-02-17T10:39:15.303Z,8.10
2018-02-17T10:41:42.762Z,8.30
2018-02-17T10:44:10.142Z,9.17
2018-02-17T10:46:37.543Z,9.00
2018-02-17T10:49:05.027Z,8.27
2018-02-17T10:51:32.511Z,8.43
2018-02-17T10:53:59.894Z,7.80
2018-02-17T10:56:27.397Z,7.70
2018-02-17T10:58:54.859Z,7.63
2018-02-17T11:01:22.262Z,7.27
2018-02-17T11:03:49.651Z,7.90
2018-02-17T11:06:17.085Z,7.80
2018-02-17T11:08:44.476Z,6.83
2018-02-17T11:11:11.879Z,6.67
2018-02-17T11:13:39.267Z,5.53
2018-02-17T11:16:06.707Z,7.80
2018-02-17T11:18:34.114Z,7.30
2018-02-17T11:21:01.496Z,6.30
2018-02-17T11:23:28.911Z,6.50
2018-02-17T11:25:56.303Z,6.40
2018-02-17T11:28:23.714Z,5.50
2018-02-17T11:30:51.186Z,6.07
2018-02-17T11:33:18.567Z,5.33
2018-02-17T11:35:46.045Z,6.53
2018-02-17T11:38:13.531Z,5.27
2018-02-17T11:40:41.007Z,5.27
2018-02-17T11:43:08.395Z,5.53
2018-02-17T11:45:35.807Z,5.70
2018-02-17T11:48:03.262Z,4.90
2018-02-17T11:50:30.744Z,7.27
2018-02-17T11:52:58.127Z,6.17
2018-02-17T11:55:25.519Z,6.83
2018-02-17T11:57:52.915Z,7.77
2018-02-17T12:00:20.308Z,6.57
2018-02-17T12:02:47.714Z,6.60
2018-02-17T12:05:15.111Z,6.57
2018-02-17T12:07:42.507Z,7.13
2018-02-17T12:10:09.902Z,6.80
2018-02-17T12:12:37.291Z,7.60
2018-02-17T12:15:04.735Z,6.83
2018-02-17T12:17:32.142Z,6.60
2018-02-17T12:19:59.594Z,7.47
2018-02-17T12:22:26.992Z,6.33
2018-02-17T12:24:54.405Z,6.57
2018-02-17T12:27:21.806Z,6.33
2018-02-17T12:29:49.217Z,6.50
2018-02-17T12:32:16.675Z,6.60
2018-02-17T12:34:44.061Z,7.60
2018-02-17T12:37:11.461Z,6.47
2018-02-17T12:39:38.838Z,6.13
2018-02-17T12:42:06.235Z,6.17
2018-02-17T12:44:33.653Z,6.37
2018-02-17T12:47:01.051Z,6.57
2018-02-17T12:49:28.467Z,6.57
2018-02-17T12:51:55.918Z,6.50
2018-02-17T12:54:23.299Z,5.77
2018-02-17T12:56:50.735Z,5.80
2018-02-17T12:59:18.123Z,5.80
2018-02-17T13:01:45.560Z,5.37
2018-02-17T13:04:12.932Z,5.73
2018-02-17T13:06:40.354Z,4.70
2018-02-17T13:09:07.745Z,5.50
2018-02-17T13:11:35.164Z,5.93
2018-02-17T13:14:02.552Z,5.30
2018-02-17T13:16:29.943Z,6.27
2018-02-17T13:18:57.347Z,4.90
2018-02-17T13:21:24.728Z,5.23
2018-02-17T13:23:52.131Z,5.90
2018-02-17T13:26:19.523Z,4.70
2018-02-17T13:28:46.964Z,4.93
2018-02-17T13:31:14.383Z,5.37
2018-02-17T13:33:41.867Z,4.67
2018-02-17T13:36:09.256Z,4.53
2018-02-17T13:38:36.679Z,4.90
2018-02-17T13:41:04.066Z,5.57
2018-02-17T13:43:31.462Z,5.40
2018-02-17T13:45:58.852Z,4.93
2018-02-17T13:48:26.248Z,5.57
2018-02-17T13:50:53.636Z,4.43
2018-02-17T13:53:21.123Z,3.83
2018-02-17T13:55:48.571Z,4.47
2018-02-17T13:58:16.027Z,4.00
2018-02-17T14:00:43.418Z,4.03
2018-02-17T14:03:10.806Z,4.37
2018-02-17T14:05:38.203Z,4.40
2018-02-17T14:08:05.587Z,3.20
2018-02-17T14:10:32.986Z,3.20
2018-02-17T14:13:00.474Z,3.77
2018-02-17T14:15:27.867Z,3.50
2018-02-17T14:17:55.272Z,3.90
2018-02-17T14:20:22.742Z,4.00
2018-02-17T14:22:50.225Z,5.37
2018-02-17T14:25:17.646Z,3.37
2018-02-17T14:27:45.038Z,3.47
2018-02-17T14:30:12.439Z,3.87
2018-02-17T14:32:39.834Z,4.60
2018-02-17T14:35:07.226Z,4.47
2018-02-17T14:37:34.723Z,3.37
2018-02-17T14:40:02.192Z,3.23
2018-02-17T14:42:29.575Z,3.13
2018-02-17T14:44:57.009Z,3.10
2018-02-17T14:47:24.391Z,3.60
2018-02-17T14:49:51.806Z,3.47
2018-02-17T14:52:19.191Z,3.67
2018-02-17T14:54:46.581Z,3.70
2018-02-17T14:57:13.980Z,4.40
2018-02-17T14:59:41.379Z,5.10
2018-02-17T15:02:08.786Z,4.87
2018-02-17T15:04:36.243Z,3.73
2018-02-17T15:07:03.647Z,4.53
2018-02-17T15:09:31.036Z,5.37
2018-02-17T15:11:58.430Z,3.60
2018-02-17T15:14:25.829Z,3.87
2018-02-17T15:16:53.230Z,3.50
2018-02-17T15:19:20.626Z,3.67
2018-02-17T15:21:48.135Z,4.40
2018-02-17T15:24:15.586Z,3.53
2018-02-17T15:26:43.051Z,3.30
2018-02-17T15:29:10.508Z,3.00
2018-02-17T15:31:37.907Z,3.55
2018-02-17T15:34:05.302Z,3.13
2018-02-17T15:36:32.771Z,3.03
2018-02-17T15:39:00.170Z,3.33
2018-02-17T15:41:27.571Z,4.00
2018-02-17T15:43:55.086Z,2.83
2018-02-17T15:46:22.454Z,3.67
2018-02-17T15:48:49.834Z,3.37
2018-02-17T15:51:17.318Z,3.17
2018-02-17T15:53:44.703Z,3.23
2018-02-17T15:56:12.114Z,3.80
2018-02-17T15:58:39.499Z,3.50
2018-02-17T16:01:06.930Z,4.43
2018-02-17T16:03:34.330Z,3.97
2018-02-17T16:06:01.773Z,4.13
2018-02-17T16:08:29.177Z,4.13
2018-02-17T16:10:56.589Z,4.13
2018-02-17T16:13:24.015Z,4.57
2018-02-17T16:15:51.395Z,3.90
2018-02-17T16:18:19.655Z,4.60
2018-02-17T16:20:47.038Z,4.90
2018-02-17T16:23:14.430Z,5.27
2018-02-17T16:25:41.818Z,4.03
2018-02-17T16:28:09.210Z,3.60
2018-02-17T16:30:36.610Z,4.10
2018-02-17T16:33:04.072Z,5.50
2018-02-17T16:35:31.530Z,4.37
2018-02-17T16:37:58.920Z,4.73
2018-02-17T16:40:26.318Z,4.30
2018-02-17T16:42:53.715Z,4.00
2018-02-17T16:45:21.150Z,5.23
2018-02-17T16:47:48.539Z,6.37
2018-02-17T16:50:15.943Z,5.97
2018-02-17T16:52:43.341Z,5.50
2018-02-17T16:55:10.727Z,7.00
2018-02-17T16:57:38.226Z,10.47
2018-02-17T17:00:05.623Z,11.03
2018-02-17T17:02:33.100Z,12.10
2018-02-17T17:05:00.430Z,9.07
2018-02-17T17:07:27.830Z,8.53
2018-02-17T17:09:55.371Z,8.07
2018-02-17T17:12:22.736Z,6.70
2018-02-17T17:14:50.143Z,5.80
2018-02-17T17:17:17.523Z,7.50
2018-02-17T17:19:44.906Z,6.77
2018-02-17T17:22:12.311Z,5.73
2018-02-17T17:24:39.710Z,5.67
2018-02-17T17:27:07.314Z,5.10
2018-02-17T17:29:34.759Z,6.73
2018-02-17T17:32:02.183Z,7.13
2018-02-17T17:34:29.684Z,8.67
2018-02-17T17:36:57.067Z,8.37
2018-02-17T17:39:24.450Z,7.50
2018-02-17T17:41:51.855Z,8.47
2018-02-17T17:44:19.243Z,7.47
2018-02-17T17:46:46.632Z,7.53
2018-02-17T17:49:14.094Z,5.63
2018-02-17T17:51:41.492Z,7.67
2018-02-17T17:54:08.894Z,9.60
2018-02-17T17:56:36.294Z,12.80
2018-02-17T17:59:03.730Z,12.20
2018-02-17T18:01:31.119Z,12.00
2018-02-17T18:03:58.518Z,8.50
2018-02-17T18:06:25.903Z,8.30
2018-02-17T18:08:53.291Z,9.57
2018-02-17T18:11:20.686Z,8.87
2018-02-17T18:13:48.078Z,12.60
2018-02-17T18:16:15.473Z,14.37
2018-02-17T18:18:42.871Z,12.97
2018-02-17T18:21:10.328Z,11.47
2018-02-17T18:23:37.779Z,14.20
2018-02-17T18:26:05.235Z,12.70
2018-02-17T18:28:32.690Z,13.53
2018-02-17T18:31:00.080Z,11.00
2018-02-17T18:33:27.466Z,9.10
2018-02-17T18:35:54.923Z,8.97
2018-02-17T18:38:22.318Z,11.10
2018-02-17T18:40:49.709Z,10.80
2018-02-17T18:43:17.127Z,10.87
2018-02-17T18:45:44.580Z,8.57
2018-02-17T18:48:12.033Z,7.63
2018-02-17T18:50:39.429Z,7.63
2018-02-17T18:53:06.815Z,6.43
2018-02-17T18:55:34.203Z,7.17
2018-02-17T18:58:01.596Z,9.27
2018-02-17T19:00:29.007Z,8.43
2018-02-17T19:02:56.401Z,8.87
2018-02-17T19:05:23.783Z,9.93
2018-02-17T19:07:51.187Z,11.27
2018-02-17T19:10:18.703Z,12.10
2018-02-17T19:12:46.106Z,11.67
2018-02-17T19:15:13.503Z,12.10
2018-02-17T19:17:40.898Z,11.80
2018-02-17T19:20:08.291Z,13.00
2018-02-17T19:22:35.722Z,12.43
2018-02-17T19:25:03.079Z,14.07
2018-02-17T19:27:30.479Z,13.47
2018-02-17T19:29:57.981Z,12.40
2018-02-17T19:32:25.431Z,12.60
2018-02-17T19:34:52.891Z,13.13
2018-02-17T19:37:20.343Z,13.30
2018-02-17T19:39:47.799Z,16.63
2018-02-17T19:42:15.255Z,19.20
2018-02-17T19:44:42.668Z,19.70
2018-02-17T19:47:10.059Z,16.80
2018-02-17T19:49:37.479Z,14.13
2018-02-17T19:52:04.867Z,12.90
2018-02-17T19:54:32.263Z,12.27
2018-02-17T19:56:59.675Z,12.00
2018-02-17T19:59:27.080Z,13.20
2018-02-17T20:01:54.499Z,12.93
2018-02-17T20:04:21.895Z,12.03
2018-02-17T20:06:49.279Z,12.03
2018-02-17T20:09:16.762Z,14.50
2018-02-17T20:11:44.154Z,13.53
2018-02-17T20:14:11.566Z,15.17
2018-02-17T20:16:38.959Z,15.40
2018-02-17T20:19:06.384Z,15.37
2018-02-17T20:21:33.771Z,15.57
2018-02-17T20:24:01.195Z,15.90
2018-02-17T20:26:28.593Z,15.13
2018-02-17T20:28:56.002Z,14.07
2018-02-17T20:31:23.394Z,13.80
2018-02-17T20:33:50.795Z,19.20
2018-02-17T20:36:18.183Z,21.90
2018-02-17T20:38:45.583Z,24.17
2018-02-17T20:41:12.976Z,24.37
2018-02-17T20:43:40.435Z,22.30
2018-02-17T20:46:07.832Z,21.90
2018-02-17T20:48:35.256Z,19.60
2018-02-17T20:51:02.704Z,18.03
2018-02-17T20:53:30.178Z,18.80
2018-02-17T20:55:57.546Z,14.57
2018-02-17T20:58:25.495Z,15.77
2018-02-17T21:00:52.904Z,14.73
2018-02-17T21:03:20.318Z,14.60
2018-02-17T21:05:47.711Z,14.50
2018-02-17T21:08:15.610Z,13.70
2018-02-17T21:10:42.998Z,12.83
2018-02-17T21:13:10.415Z,13.43
2018-02-17T21:15:37.808Z,13.17
2018-02-17T21:18:05.227Z,11.50
2018-02-17T21:20:32.639Z,10.40
2018-02-17T21:23:00.031Z,11.67
2018-02-17T21:25:27.435Z,12.13
2018-02-17T21:27:54.827Z,12.70
2018-02-17T21:30:22.308Z,14.33
2018-02-17T21:32:49.702Z,14.70
2018-02-17T21:35:17.168Z,12.67
2018-02-17T21:37:44.507Z,15.30
2018-02-17T21:40:11.906Z,13.07
2018-02-17T21:42:39.296Z,12.00
2018-02-17T21:45:06.690Z,12.23
2018-02-17T21:47:34.083Z,10.50
2018-02-17T21:50:01.553Z,11.03
2018-02-17T21:52:28.938Z,9.80
2018-02-17T21:54:56.338Z,11.43
2018-02-17T21:57:23.811Z,11.10
2018-02-17T21:59:51.215Z,11.40
2018-02-17T22:02:18.614Z,11.30
2018-02-17T22:04:46.014Z,10.90
2018-02-17T22:07:13.407Z,12.47
2018-02-17T22:09:40.891Z,13.97
2018-02-17T22:12:08.283Z,11.10
2018-02-17T22:14:35.703Z,13.60
2018-02-17T22:17:03.095Z,12.67
2018-02-17T22:19:30.500Z,13.27
2018-02-17T22:21:57.986Z,13.40
2018-02-17T22:24:25.387Z,13.47
2018-02-17T22:26:52.831Z,13.00
2018-02-17T22:29:20.227Z,11.27
2018-02-17T22:31:47.615Z,10.90
2018-02-17T22:34:15.016Z,9.67
2018-02-17T22:36:42.402Z,9.43
2018-02-17T22:39:09.794Z,9.77
2018-02-17T22:41:37.207Z,10.63
2018-02-17T22:44:04.598Z,8.93
2018-02-17T22:46:32.059Z,10.00
2018-02-17T22:48:59.391Z,9.70
2018-02-17T22:51:26.866Z,8.77
2018-02-17T22:53:54.270Z,9.23
2018-02-17T22:56:21.682Z,8.07
2018-02-17T22:58:49.084Z,8.70
2018-02-17T23:01:16.495Z,9.00
2018-02-17T23:03:43.923Z,9.97
2018-02-17T23:06:11.406Z,9.20
2018-02-17T23:08:38.799Z,9.90
2018-02-17T23:11:06.245Z,9.17
2018-02-17T23:13:33.598Z,9.17
2018-02-17T23:16:01.002Z,8.67
2018-02-17T23:18:28.383Z,9.33
2018-02-17T23:20:55.796Z,10.57
2018-02-17T23:23:23.211Z,9.70
2018-02-17T23:25:50.616Z,10.70
2018-02-17T23:28:18.015Z,10.13
2018-02-17T23:30:45.410Z,9.60
2018-02-17T23:33:12.791Z,9.93
2018-02-17T23:35:40.183Z,10.70
2018-02-17T23:38:07.570Z,10.83
2018-02-17T23:40:34.970Z,10.83
2018-02-17T23:43:02.435Z,10.70
2018-02-17T23:45:30.048Z,10.43
2018-02-17T23:47:57.621Z,9.33
2018-02-17T23:50:25.123Z,9.00
2018-02-17T23:52:52.694Z,9.80
2018-02-17T23:55:20.238Z,10.00
2018-02-17T23:57:47.640Z,9.60
